Time;durP1;ratioP1;P1;durP2;ratioP2;P2;SDS_P1;SDS_P2;PMS_P1;PMS_P2;Temp;Humidity;BMP_temperature;BMP_pressure;BME280_temperature;BME280_humidity;BME280_pressure;Samples;Min_cycle;Max_cycle;Signal;HPM_P1;HPM_P2
2022/08/04 04:33:07;;;;;;;;;3.00;3.00;;;;;26.34;44.35;100975.50;4978729;28;46699;-53
2022/08/04 04:35:41;;;;;;;;;1.00;1.00;;;;;26.32;44.45;100961.19;4978455;28;46968;-51
2022/08/04 04:38:56;;;;;;;;;3.00;2.00;;;;;26.26;44.57;100968.22;4978751;28;45227;-54
2022/08/04 04:41:51;;;;;;;;;4.00;3.00;;;;;26.23;44.12;100996.66;4952035;28;45496;-54
2022/08/04 04:44:28;;;;;;;;;2.00;2.00;;;;;26.14;45.56;101010.47;4970713;28;45180;-54
2022/08/04 04:47:08;;;;;;;;;2.67;2.00;;;;;25.98;44.46;101012.19;4979396;28;46155;-55
2022/08/04 04:49:58;;;;;;;;;2.67;2.67;;;;;25.93;44.46;101023.59;4960399;28;45294;-53
2022/08/04 04:52:37;;;;;;;;;0.33;0.33;;;;;25.83;44.60;101039.28;4979475;28;45572;-53
2022/08/04 04:55:22;;;;;;;;;5.00;3.00;;;;;25.69;44.97;101051.72;4980007;28;45283;-55
2022/08/04 04:57:50;;;;;;;;;2.67;2.67;;;;;25.56;45.18;101057.66;4980509;28;45521;-54
2022/08/04 05:00:16;;;;;;;;;5.33;2.67;;;;;25.51;46.78;101030.09;4965791;28;45655;-54
2022/08/04 05:02:50;;;;;;;;;3.33;1.67;;;;;25.52;46.25;101020.06;4986932;28;45528;-52
2022/08/04 05:05:40;;;;;;;;;3.00;3.00;;;;;25.53;46.01;101022.59;4985674;28;45433;-54
2022/08/04 05:08:40;;;;;;;;;2.00;2.00;;;;;25.52;45.71;101039.13;4993056;28;47190;-54
2022/08/04 05:11:51;;;;;;;;;3.00;1.00;;;;;25.40;45.91;101042.16;4985043;28;45491;-53
2022/08/04 05:14:22;;;;;;;;;3.33;3.33;;;;;25.30;45.70;101037.88;4978183;28;45326;-52
2022/08/04 05:17:05;;;;;;;;;3.67;3.00;;;;;25.34;45.67;101022.91;4983564;28;45814;-53
2022/08/04 05:19:59;;;;;;;;;3.33;3.00;;;;;25.39;45.45;101028.72;4962608;28;45344;-50
2022/08/04 05:22:29;;;;;;;;;5.33;4.67;;;;;25.40;45.21;101017.66;4981313;28;45413;-55
2022/08/04 05:25:02;;;;;;;;;3.33;3.00;;;;;25.37;46.15;101034.34;4964396;28;45414;-53
2022/08/04 05:27:34;;;;;;;;;4.67;4.67;;;;;25.34;45.76;101031.06;4966651;28;45305;-59
2022/08/04 05:30:03;;;;;;;;;3.67;2.00;;;;;25.25;45.83;101041.97;4970533;28;47226;-53
2022/08/04 05:32:37;;;;;;;;;2.33;2.33;;;;;25.12;45.95;101049.72;4990241;28;45581;-53
2022/08/04 05:35:07;;;;;;;;;4.33;4.33;;;;;25.07;45.60;101065.69;4990209;28;45747;-54
2022/08/04 05:37:34;;;;;;;;;3.00;3.00;;;;;25.09;46.36;101055.50;4991460;28;45790;-55
2022/08/04 05:40:03;;;;;;;;;2.00;2.00;;;;;25.08;46.07;101041.06;4963532;28;45784;-52
2022/08/04 05:42:30;;;;;;;;;3.33;3.33;;;;;25.08;45.87;101040.19;4984840;28;45428;-53
2022/08/04 05:44:57;;;;;;;;;4.00;4.00;;;;;25.10;46.59;101049.91;4993193;28;45750;-56
2022/08/04 05:47:23;;;;;;;;;5.67;4.00;;;;;25.10;45.99;101038.19;4978245;28;45395;-53
2022/08/04 05:49:49;;;;;;;;;6.00;4.00;;;;;25.11;46.90;101031.72;4985421;28;48733;-55
2022/08/04 05:52:15;;;;;;;;;6.00;3.67;;;;;25.22;46.46;101016.94;4979464;28;45413;-52
2022/08/04 05:54:41;;;;;;;;;4.67;4.67;;;;;25.34;46.16;101007.41;4978393;28;62796;-53
2022/08/04 05:57:07;;;;;;;;;2.00;2.00;;;;;25.38;46.18;101013.41;4985787;28;45413;-53
2022/08/04 05:59:36;;;;;;;;;2.33;2.33;;;;;25.42;46.02;101017.50;4978446;28;46344;-54
2022/08/04 06:02:02;;;;;;;;;3.00;3.00;;;;;25.50;45.76;101017.50;4989631;28;45751;-53
2022/08/04 06:04:34;;;;;;;;;7.33;4.67;;;;;25.52;45.68;101020.91;4988044;28;45644;-52
2022/08/04 06:06:59;;;;;;;;;4.33;4.33;;;;;25.61;45.30;101013.59;4962621;28;45743;-52
2022/08/04 06:09:25;;;;;;;;;4.67;3.67;;;;;25.69;45.20;101026.34;4976664;28;46134;-54
2022/08/04 06:11:51;;;;;;;;;4.33;3.67;;;;;25.69;45.20;101048.13;4977362;28;45835;-54
2022/08/04 06:14:17;;;;;;;;;6.00;4.00;;;;;25.66;45.54;101043.06;4982116;28;61239;-54
2022/08/04 06:16:43;;;;;;;;;4.33;4.33;;;;;25.68;44.85;101039.13;4960415;28;70120;-54
2022/08/04 06:19:12;;;;;;;;;1.33;1.33;;;;;25.79;45.00;101028.88;4982769;28;46046;-53
2022/08/04 06:21:47;;;;;;;;;4.00;3.00;;;;;25.83;45.25;101033.84;4982544;28;45938;-52
2022/08/04 06:24:16;;;;;;;;;3.00;2.00;;;;;25.85;44.48;101039.09;4984679;28;45394;-53
2022/08/04 06:26:43;;;;;;;;;7.00;3.00;;;;;25.85;44.80;101036.38;4964982;28;46231;-54
2022/08/04 06:29:16;;;;;;;;;3.00;3.00;;;;;25.90;45.07;101034.00;4982348;28;46402;-52
2022/08/04 06:31:57;;;;;;;;;3.67;2.00;;;;;25.97;44.53;101034.16;4982706;28;45535;-54
2022/08/04 06:34:23;;;;;;;;;2.33;2.00;;;;;26.04;44.50;101029.75;4961897;28;45729;-52
2022/08/04 06:36:48;;;;;;;;;7.00;4.00;;;;;26.08;44.20;101033.84;4963342;28;45412;-55
2022/08/04 06:39:14;;;;;;;;;2.67;2.00;;;;;26.12;44.29;101047.97;4978543;28;46285;-55
2022/08/04 06:41:40;;;;;;;;;2.33;2.33;;;;;26.14;44.03;101048.63;4988946;28;45359;-53
2022/08/04 06:44:08;;;;;;;;;6.00;3.67;;;;;26.15;44.70;101044.88;4986089;28;45380;-55
2022/08/04 06:46:35;;;;;;;;;3.00;2.67;;;;;26.14;44.32;101054.09;4971678;28;45404;-56
2022/08/04 06:49:00;;;;;;;;;3.33;2.67;;;;;26.18;44.60;101059.03;4985312;28;46325;-56
2022/08/04 06:51:27;;;;;;;;;2.67;2.00;;;;;26.27;43.79;101056.28;4978640;28;45387;-54
2022/08/04 06:53:52;;;;;;;;;2.00;2.00;;;;;26.36;44.46;101055.22;4987089;28;45429;-55
2022/08/04 06:56:18;;;;;;;;;3.00;2.67;;;;;26.47;43.93;101049.41;4990125;28;45531;-54
2022/08/04 06:58:45;;;;;;;;;2.67;2.33;;;;;26.60;43.58;101051.59;4987264;28;46326;-55
2022/08/04 07:01:12;;;;;;;;;2.33;2.33;;;;;26.75;43.81;101057.16;4989495;28;45717;-55
2022/08/04 07:03:37;;;;;;;;;3.00;3.00;;;;;26.89;43.59;101053.69;4981641;28;45883;-55
2022/08/04 07:06:03;;;;;;;;;3.00;2.00;;;;;27.00;42.88;101051.59;4961830;28;70329;-55
2022/08/04 07:08:28;;;;;;;;;1.33;1.33;;;;;27.07;42.53;101055.31;4977408;28;75720;-54
2022/08/04 07:10:56;;;;;;;;;1.00;1.00;;;;;27.13;42.54;101068.25;4975893;28;45504;-55
2022/08/04 07:13:22;;;;;;;;;2.33;2.33;;;;;27.21;43.16;101067.34;4979961;28;45223;-56
2022/08/04 07:15:48;;;;;;;;;2.00;2.00;;;;;27.23;42.12;101071.59;4979764;28;45729;-54
2022/08/04 07:18:14;;;;;;;;;2.00;0.67;;;;;27.30;42.21;101068.13;4979683;28;45412;-55
2022/08/04 07:20:44;;;;;;;;;2.33;1.00;;;;;27.34;42.22;101075.78;4979848;28;45424;-56
2022/08/04 07:23:12;;;;;;;;;2.00;0.67;;;;;27.40;42.32;101077.84;4980659;28;45393;-54
2022/08/04 07:25:38;;;;;;;;;2.67;1.67;;;;;27.53;42.45;101074.50;4980129;28;45239;-56
2022/08/04 07:28:03;;;;;;;;;2.67;2.67;;;;;27.66;41.78;101071.13;4962736;28;46310;-55
2022/08/04 07:30:29;;;;;;;;;2.67;1.67;;;;;27.76;41.76;101072.78;4977893;28;67586;-55
2022/08/04 07:32:54;;;;;;;;;2.33;1.67;;;;;27.77;41.39;101063.53;4962904;28;45379;-54
2022/08/04 07:35:21;;;;;;;;;1.67;1.67;;;;;27.75;41.33;101071.94;4979839;28;68091;-56
2022/08/04 07:37:46;;;;;;;;;0.33;0.33;;;;;27.70;41.95;101082.56;4962262;28;47291;-56
2022/08/04 07:40:12;;;;;;;;;2.33;1.00;;;;;27.66;42.10;101100.34;4968535;28;53844;-56
2022/08/04 07:42:37;;;;;;;;;2.33;2.33;;;;;27.58;42.22;101104.00;4980396;28;64592;-56
2022/08/04 07:45:03;;;;;;;;;2.00;1.67;;;;;27.46;42.47;101089.91;4979555;28;45515;-56
2022/08/04 07:47:29;;;;;;;;;1.33;0.00;;;;;27.42;42.25;101093.16;4978600;28;46101;-55
2022/08/04 07:49:54;;;;;;;;;1.33;1.33;;;;;27.40;41.96;101112.47;4978847;28;66860;-56
2022/08/04 07:52:20;;;;;;;;;4.00;3.00;;;;;27.34;42.66;101111.28;4981619;28;45681;-55
2022/08/04 07:54:46;;;;;;;;;1.33;1.33;;;;;27.32;42.56;101112.50;4978937;28;45350;-56
2022/08/04 07:57:11;;;;;;;;;0.67;0.00;;;;;27.25;42.93;101104.19;4961767;28;73675;-56
2022/08/04 07:59:36;;;;;;;;;1.33;1.33;;;;;27.17;43.06;101102.34;4978332;28;57625;-56
2022/08/04 08:02:03;;;;;;;;;2.00;0.33;;;;;27.17;43.33;101106.94;4978563;28;67983;-55
2022/08/04 08:04:28;;;;;;;;;1.00;1.00;;;;;27.17;42.95;101109.66;4978647;28;45586;-55
2022/08/04 08:06:54;;;;;;;;;2.33;2.00;;;;;27.15;42.76;101120.75;4961099;28;45619;-56
2022/08/04 08:09:23;;;;;;;;;2.00;0.67;;;;;27.15;43.13;101128.94;4956633;28;45346;-56
2022/08/04 08:11:50;;;;;;;;;1.00;1.00;;;;;27.11;42.87;101143.16;4977510;28;45341;-55
2022/08/04 08:14:16;;;;;;;;;0.00;0.00;;;;;27.08;43.44;101150.66;4975418;28;45288;-56
2022/08/04 08:16:42;;;;;;;;;1.00;1.00;;;;;27.00;43.72;101145.25;4972339;28;45769;-55
2022/08/04 08:19:08;;;;;;;;;0.33;0.33;;;;;26.91;43.70;101149.88;4982658;28;45421;-56
2022/08/04 08:21:34;;;;;;;;;0.00;0.00;;;;;26.84;43.82;101146.16;4981234;28;45291;-55
2022/08/04 08:23:59;;;;;;;;;0.33;0.33;;;;;26.82;43.32;101141.91;4977403;28;45269;-56
2022/08/04 08:26:25;;;;;;;;;1.00;1.00;;;;;26.81;44.84;101143.75;4984942;28;69726;-56
2022/08/04 08:28:51;;;;;;;;;2.00;1.00;;;;;26.77;44.20;101145.16;4977976;28;45330;-56
2022/08/04 08:31:16;;;;;;;;;1.00;1.00;;;;;26.75;44.14;101163.56;4964688;28;45473;-56
2022/08/04 08:33:42;;;;;;;;;1.67;0.33;;;;;26.73;44.43;101163.72;4980964;28;63908;-56
2022/08/04 08:36:19;;;;;;;;;0.67;0.67;;;;;26.75;44.36;101160.81;4969160;28;66421;-55
2022/08/04 08:38:51;;;;;;;;;1.67;0.67;;;;;26.76;44.15;101159.81;4986660;28;45334;-56
2022/08/04 08:41:42;;;;;;;;;0.67;0.67;;;;;26.85;44.44;101136.09;4991460;28;45500;-56
2022/08/04 08:44:45;;;;;;;;;0.33;0.33;;;;;26.95;44.57;101112.16;4989973;28;45310;-56
2022/08/04 08:47:33;;;;;;;;;0.67;0.67;;;;;27.07;44.11;101123.53;4976677;28;45473;-55
2022/08/04 08:50:15;;;;;;;;;2.67;0.67;;;;;27.17;44.37;101118.72;4985457;28;45317;-56
2022/08/04 08:52:54;;;;;;;;;0.67;0.67;;;;;27.35;43.89;101120.31;4990817;28;45382;-56
2022/08/04 08:55:39;;;;;;;;;1.00;1.00;;;;;27.52;44.01;101121.97;4991003;28;45261;-56
2022/08/04 08:58:28;;;;;;;;;2.00;1.00;;;;;27.61;43.70;101127.34;4986590;28;47178;-55
2022/08/04 09:01:16;;;;;;;;;0.00;0.00;;;;;27.66;43.32;101141.31;4984652;28;45526;-56
2022/08/04 09:04:20;;;;;;;;;2.33;0.67;;;;;27.66;43.30;101152.25;4998834;28;45513;-56
2022/08/04 09:06:57;;;;;;;;;0.00;0.00;;;;;27.68;43.44;101147.47;4959203;28;45760;-55
2022/08/04 09:09:47;;;;;;;;;1.00;1.00;;;;;27.67;43.00;101137.56;4982923;28;45667;-56
2022/08/04 09:12:21;;;;;;;;;0.67;0.67;;;;;27.67;43.44;101146.59;4988963;28;45350;-55
2022/08/04 09:14:53;;;;;;;;;0.00;0.00;;;;;27.73;43.07;101140.41;4983919;28;45482;-55
2022/08/04 09:18:00;;;;;;;;;1.00;1.00;;;;;27.89;43.30;101144.06;4978567;28;45478;-55
2022/08/04 09:20:26;;;;;;;;;0.00;0.00;;;;;28.09;42.95;101152.63;4962340;28;47175;-58
2022/08/04 09:23:15;;;;;;;;;5.00;4.67;;;;;28.38;42.80;101156.47;4981182;28;45412;-56
2022/08/04 09:25:47;;;;;;;;;0.00;0.00;;;;;28.64;41.81;101153.31;4985472;28;45359;-55
2022/08/04 09:28:22;;;;;;;;;0.00;0.00;;;;;28.79;41.97;101155.25;4964456;28;46504;-56
2022/08/04 09:30:55;;;;;;;;;0.00;0.00;;;;;28.90;41.81;101160.22;4975377;28;45294;-56
2022/08/04 09:33:36;;;;;;;;;0.33;0.33;;;;;29.02;41.90;101163.31;4978793;28;45541;-56
2022/08/04 09:36:26;;;;;;;;;0.00;0.00;;;;;29.27;41.53;101163.91;4981272;28;45234;-56
2022/08/04 09:38:58;;;;;;;;;0.00;0.00;;;;;29.52;40.97;101169.88;4994070;28;45578;-56
2022/08/04 09:41:29;;;;;;;;;0.00;0.00;;;;;29.73;40.63;101179.19;4983303;28;46092;-55
2022/08/04 09:44:11;;;;;;;;;0.00;0.00;;;;;29.99;40.20;101175.03;4981040;28;45369;-55
2022/08/04 09:46:56;;;;;;;;;1.00;0.00;;;;;30.35;39.43;101172.19;4974287;28;45382;-56
2022/08/04 09:49:30;;;;;;;;;0.00;0.00;;;;;30.51;39.75;101168.31;4996176;28;45302;-56
2022/08/04 09:51:56;;;;;;;;;0.00;0.00;;;;;30.52;39.60;101171.94;4963446;28;45445;-56
2022/08/04 09:54:48;;;;;;;;;3.67;0.00;;;;;30.38;39.33;101170.06;4981228;28;45346;-56
2022/08/04 09:57:40;;;;;;;;;0.00;0.00;;;;;30.29;38.58;101156.53;4980072;28;45431;-55
2022/08/04 10:00:12;;;;;;;;;2.00;0.33;;;;;30.32;39.13;101158.00;4979559;28;45384;-56
2022/08/04 10:02:39;;;;;;;;;0.67;0.67;;;;;30.53;38.74;101154.41;4963116;28;46883;-56
2022/08/04 10:05:13;;;;;;;;;0.00;0.00;;;;;30.81;38.78;101165.34;4990772;28;45321;-56
2022/08/04 10:07:56;;;;;;;;;2.00;0.00;;;;;31.09;37.50;101163.63;4984704;28;46411;-56
2022/08/04 10:11:06;;;;;;;;;0.00;0.00;;;;;31.19;36.97;101161.34;4982158;28;45541;-56
2022/08/04 10:13:47;;;;;;;;;0.00;0.00;;;;;30.81;37.52;101164.50;4952097;28;47246;-57
2022/08/04 10:16:31;;;;;;;;;1.67;0.00;;;;;30.61;38.27;101165.25;4963411;28;45397;-56
2022/08/04 10:19:13;;;;;;;;;2.00;0.00;;;;;30.45;38.32;101168.25;4980976;28;45361;-56
2022/08/04 10:22:14;;;;;;;;;0.00;0.00;;;;;30.37;38.27;101166.50;4981103;28;45461;-57
2022/08/04 10:25:04;;;;;;;;;0.00;0.00;;;;;30.40;38.46;101157.84;4969764;28;46360;-56
2022/08/04 10:27:42;;;;;;;;;0.00;0.00;;;;;30.50;38.34;101169.38;4981111;28;45216;-57
2022/08/04 10:30:10;;;;;;;;;0.00;0.00;;;;;30.47;37.47;101168.94;4963210;28;45401;-57
2022/08/04 10:32:59;;;;;;;;;0.00;0.00;;;;;30.43;37.67;101160.22;4961421;28;45334;-56
2022/08/04 10:35:27;;;;;;;;;0.00;0.00;;;;;30.92;37.69;101169.41;4979652;28;48160;-56
2022/08/04 10:38:02;;;;;;;;;0.00;0.00;;;;;31.74;37.11;101158.56;4976373;28;45328;-54
2022/08/04 10:40:45;;;;;;;;;0.50;0.00;;;;;32.58;36.04;101147.16;4979478;28;45337;-57
2022/08/04 10:43:36;;;;;;;;;0.00;0.00;;;;;33.21;33.67;101140.22;4978334;28;45346;-57
2022/08/04 10:46:08;;;;;;;;;0.00;0.00;;;;;33.92;34.40;101138.34;4980501;28;46004;-57
2022/08/04 10:48:41;;;;;;;;;0.00;0.00;;;;;34.85;33.29;101133.88;4962607;28;45335;-58
2022/08/04 10:51:35;;;;;;;;;0.00;0.00;;;;;35.41;30.66;101142.97;4980854;28;45375;-58
2022/08/04 10:54:05;;;;;;;;;0.25;0.00;;;;;35.63;29.94;101141.59;4977209;28;45442;-57
2022/08/04 10:56:40;;;;;;;;;0.00;0.00;;;;;35.83;30.19;101142.13;4992769;28;47243;-58
2022/08/04 10:59:11;;;;;;;;;0.00;0.00;;;;;36.25;29.52;101144.84;4988549;28;45329;-57
2022/08/04 11:01:42;;;;;;;;;1.75;0.00;;;;;36.90;28.46;101139.41;4977605;28;45305;-57
2022/08/04 11:04:15;;;;;;;;;0.00;0.00;;;;;37.33;29.14;101143.63;4991420;28;45683;-58
2022/08/04 11:06:42;;;;;;;;;0.50;0.50;;;;;37.91;26.46;101146.34;4989115;28;46374;-58
2022/08/04 11:09:08;;;;;;;;;1.00;1.00;;;;;38.55;27.63;101136.78;4962481;28;45376;-58
2022/08/04 11:12:07;;;;;;;;;0.25;0.25;;;;;39.20;26.52;101132.41;4986543;28;64829;-58
2022/08/04 11:14:39;;;;;;;;;1.50;0.00;;;;;39.86;26.70;101136.94;4972063;28;45378;-58
2022/08/04 11:17:07;;;;;;;;;0.33;0.33;;;;;40.45;25.45;101137.94;4958271;28;45328;-58
2022/08/04 11:19:59;;;;;;;;;0.00;0.00;;;;;40.56;22.47;101140.81;4978128;28;45478;-58
2022/08/04 11:22:25;;;;;;;;;0.00;0.00;;;;;40.57;23.37;101131.34;4961781;28;45360;-58
2022/08/04 11:25:12;;;;;;;;;0.00;0.00;;;;;40.84;23.51;101122.81;4979574;28;45691;-58
2022/08/04 11:27:46;;;;;;;;;1.00;0.00;;;;;40.85;22.97;101113.34;4978705;28;46234;-58
2022/08/04 11:30:14;;;;;;;;;1.00;1.00;;;;;41.02;23.30;101121.53;4981277;28;45456;-58
2022/08/04 11:32:51;;;;;;;;;0.00;0.00;;;;;41.30;21.99;101125.78;4938746;28;45354;-58
2022/08/04 11:35:57;;;;;;;;;0.00;0.00;;;;;41.57;22.69;101130.31;4979756;28;45660;-58
2022/08/04 11:38:53;;;;;;;;;0.00;0.00;;;;;41.92;22.90;101131.44;4959496;28;45414;-58
2022/08/04 11:41:29;;;;;;;;;0.00;0.00;;;;;42.26;22.28;101136.47;4980698;28;45505;-58
2022/08/04 11:43:57;;;;;;;;;0.00;0.00;;;;;42.64;21.56;101142.47;4962158;28;45304;-58
2022/08/04 11:46:26;;;;;;;;;1.00;0.67;;;;;42.87;21.49;101129.03;4981514;28;45439;-58
2022/08/04 11:49:00;;;;;;;;;0.00;0.00;;;;;43.15;20.63;101140.63;4979807;28;45321;-59
2022/08/04 11:51:27;;;;;;;;;0.00;0.00;;;;;43.22;20.88;101138.38;4978231;28;45353;-58
2022/08/04 11:53:53;;;;;;;;;1.00;1.00;;;;;43.40;21.53;101145.22;4976432;28;45615;-57
2022/08/04 11:56:18;;;;;;;;;0.00;0.00;;;;;43.57;20.32;101144.00;4961259;28;51124;-57
2022/08/04 11:58:43;;;;;;;;;0.00;0.00;;;;;43.23;19.73;101141.97;4977749;28;70723;-58
2022/08/04 12:01:34;;;;;;;;;1.00;0.00;;;;;43.09;20.26;101138.97;4978629;28;45591;-57
2022/08/04 12:04:12;;;;;;;;;0.00;0.00;;;;;42.98;20.32;101140.97;4977753;28;45469;-58
2022/08/04 12:06:51;;;;;;;;;1.00;1.00;;;;;43.07;20.69;101144.84;4974467;28;45502;-57
2022/08/04 12:09:25;;;;;;;;;0.67;0.00;;;;;43.22;20.43;101145.91;4978493;28;45690;-58
2022/08/04 12:12:34;;;;;;;;;2.00;0.00;;;;;43.40;20.56;101152.78;4978260;28;45348;-58
2022/08/04 12:15:18;;;;;;;;;1.00;1.00;;;;;43.71;20.16;101138.59;4970357;28;45537;-58
2022/08/04 12:17:50;;;;;;;;;1.00;0.67;;;;;43.80;20.32;101145.22;4977630;28;45387;-58
2022/08/04 12:20:20;;;;;;;;;0.00;0.00;;;;;44.02;19.74;101146.75;4967776;28;46255;-58
2022/08/04 12:22:47;;;;;;;;;0.00;0.00;;;;;44.22;19.66;101146.53;4978481;28;45279;-58
2022/08/04 12:25:33;;;;;;;;;1.00;1.00;;;;;44.20;19.10;101140.41;4977787;28;45569;-58
2022/08/04 12:28:06;;;;;;;;;2.00;0.67;;;;;44.02;19.92;101147.59;4958732;28;45440;-58
2022/08/04 12:30:37;;;;;;;;;0.33;0.33;;;;;43.89;19.55;101137.88;4983214;28;45476;-58
2022/08/04 12:33:28;;;;;;;;;0.00;0.00;;;;;43.99;19.37;101138.94;4986086;28;45454;-58
2022/08/04 12:36:01;;;;;;;;;1.33;0.00;;;;;43.85;19.55;101139.59;4955968;28;45488;-58
2022/08/04 12:38:31;;;;;;;;;1.00;1.00;;;;;43.59;19.55;101138.97;4981541;28;45474;-58
2022/08/04 12:40:59;;;;;;;;;0.00;0.00;;;;;43.48;20.06;101143.75;4986443;28;46157;-58
2022/08/04 12:43:37;;;;;;;;;0.00;0.00;;;;;43.36;20.56;101140.50;4989955;28;45431;-58
2022/08/04 12:46:06;;;;;;;;;2.00;0.00;;;;;43.22;19.58;101141.16;4987914;28;45350;-58
2022/08/04 12:48:34;;;;;;;;;0.00;0.00;;;;;43.09;20.46;101136.19;4981409;28;45665;-58
2022/08/04 12:50:59;;;;;;;;;1.00;1.00;;;;;43.06;19.58;101142.34;4978373;28;45348;-58
2022/08/04 12:53:40;;;;;;;;;0.00;0.00;;;;;42.86;20.56;101140.50;4982236;28;45323;-58
2022/08/04 12:56:08;;;;;;;;;1.33;1.33;;;;;42.59;20.65;101138.88;4983081;28;45519;-58
2022/08/04 12:58:43;;;;;;;;;0.33;0.33;;;;;42.29;20.74;101135.06;4959207;28;45509;-58
2022/08/04 13:01:20;;;;;;;;;1.33;1.00;;;;;42.17;20.47;101134.50;4967638;28;46052;-58
2022/08/04 13:03:52;;;;;;;;;0.00;0.00;;;;;42.04;21.07;101135.91;4976579;28;45602;-58
2022/08/04 13:06:23;;;;;;;;;0.00;0.00;;;;;41.79;20.87;101132.00;4960882;28;45366;-58
2022/08/04 13:08:49;;;;;;;;;1.00;1.00;;;;;41.41;21.04;101126.66;4978059;28;45457;-58
2022/08/04 13:11:16;;;;;;;;;1.00;1.00;;;;;41.06;21.65;101132.97;4980603;28;74987;-58
2022/08/04 13:13:43;;;;;;;;;0.00;0.00;;;;;40.74;21.76;101128.34;4978781;28;45385;-58
2022/08/04 13:16:10;;;;;;;;;1.00;1.00;;;;;40.57;21.93;101132.16;4980134;28;56299;-58
2022/08/04 13:18:41;;;;;;;;;0.67;0.67;;;;;40.37;22.49;101134.84;4982701;28;45357;-58
2022/08/04 13:21:15;;;;;;;;;1.00;1.00;;;;;40.15;23.11;101139.41;4981968;28;46178;-58
2022/08/04 13:23:44;;;;;;;;;0.00;0.00;;;;;39.84;22.69;101143.88;4978267;28;45530;-58
2022/08/04 13:26:11;;;;;;;;;1.00;1.00;;;;;39.50;22.97;101138.53;4985711;28;45361;-58
2022/08/04 13:28:39;;;;;;;;;0.25;0.00;;;;;39.25;23.37;101134.38;4985077;28;45327;-58
2022/08/04 13:31:06;;;;;;;;;0.25;0.25;;;;;38.96;24.01;101129.03;4994998;28;45457;-58
2022/08/04 13:33:35;;;;;;;;;2.00;2.00;;;;;38.69;23.90;101123.38;4986350;28;45358;-58
2022/08/04 13:36:00;;;;;;;;;2.50;1.00;;;;;38.39;24.58;101119.91;4980256;28;45428;-58
2022/08/04 13:38:27;;;;;;;;;0.75;0.75;;;;;38.03;24.67;101127.69;4986190;28;45525;-58
2022/08/04 13:40:55;;;;;;;;;1.00;1.00;;;;;37.64;25.26;101116.47;4980071;28;47371;-58
2022/08/04 13:43:33;;;;;;;;;2.25;0.50;;;;;37.36;25.41;101117.34;4990291;28;45371;-58
2022/08/04 13:46:01;;;;;;;;;3.00;1.00;;;;;37.19;25.53;101117.25;4986723;28;45337;-57
2022/08/04 13:48:36;;;;;;;;;3.00;1.67;;;;;36.99;26.24;101110.22;4986987;28;45700;-57
2022/08/04 13:51:04;;;;;;;;;0.00;0.00;;;;;36.72;26.64;101113.50;4987180;28;46395;-57
2022/08/04 13:53:31;;;;;;;;;0.50;0.50;;;;;36.48;26.89;101120.19;4995301;28;45290;-57
2022/08/04 13:55:59;;;;;;;;;0.50;0.50;;;;;36.20;27.13;101116.19;4965177;28;45420;-57
2022/08/04 13:58:24;;;;;;;;;0.00;0.00;;;;;36.07;27.02;101109.81;4992680;28;45560;-57
2022/08/04 14:01:03;;;;;;;;;4.00;1.00;;;;;35.98;27.17;101119.53;4981401;28;72113;-57
2022/08/04 14:03:33;;;;;;;;;1.75;1.75;;;;;35.97;27.61;101122.56;4989809;28;45504;-57
2022/08/04 14:06:24;;;;;;;;;2.00;2.00;;;;;35.97;27.41;101112.34;4963430;28;45474;-57
2022/08/04 14:08:53;;;;;;;;;0.75;0.75;;;;;35.90;27.59;101106.91;4981152;28;45164;-57
2022/08/04 14:11:32;;;;;;;;;2.50;1.00;;;;;35.82;28.11;101109.16;4993196;28;45637;-57
2022/08/04 14:13:58;;;;;;;;;0.25;0.00;;;;;35.85;28.24;101105.94;4980740;28;45696;-57
2022/08/04 14:16:23;;;;;;;;;0.00;0.00;;;;;35.80;28.20;101103.00;4963062;28;60015;-58
2022/08/04 14:18:58;;;;;;;;;2.25;2.25;;;;;35.82;28.20;101095.34;4979318;28;66769;-58
2022/08/04 14:21:23;;;;;;;;;1.00;1.00;;;;;35.93;27.71;101088.97;4981014;28;46312;-58
2022/08/04 14:23:52;;;;;;;;;3.75;1.50;;;;;35.94;27.50;101090.69;4995330;28;66803;-58
2022/08/04 14:26:32;;;;;;;;;0.75;0.75;;;;;35.85;27.93;101094.88;4982025;28;45726;-58
2022/08/04 14:29:12;;;;;;;;;3.25;3.25;;;;;35.75;27.78;101092.69;4980330;28;45494;-58
2022/08/04 14:31:39;;;;;;;;;4.50;3.75;;;;;35.70;28.08;101104.44;4980233;28;46218;-58
2022/08/04 14:34:04;;;;;;;;;2.50;2.00;;;;;35.63;27.94;101089.03;4980223;28;45505;-58
2022/08/04 14:36:41;;;;;;;;;1.75;1.75;;;;;35.55;28.65;101084.69;4980402;28;45456;-58
2022/08/04 14:39:07;;;;;;;;;3.00;2.33;;;;;35.45;28.35;101088.03;4962796;28;45310;-58
2022/08/04 14:41:48;;;;;;;;;2.25;2.25;;;;;35.19;28.88;101094.75;4982484;28;45534;-58
2022/08/04 14:44:14;;;;;;;;;2.00;2.00;;;;;35.00;28.93;101105.00;4978013;28;45439;-58
2022/08/04 14:46:50;;;;;;;;;1.25;1.25;;;;;34.85;29.23;101100.75;4981116;28;45416;-58
2022/08/04 14:49:16;;;;;;;;;1.00;1.00;;;;;34.75;28.89;101094.88;4982799;28;45671;-58
2022/08/04 14:51:44;;;;;;;;;2.00;2.00;;;;;34.64;29.56;101099.25;4979273;28;45811;-58
2022/08/04 14:54:11;;;;;;;;;2.25;2.25;;;;;34.53;29.11;101100.84;4962403;28;45213;-58
2022/08/04 14:56:41;;;;;;;;;1.00;1.00;;;;;34.45;29.64;101102.00;4979743;28;45476;-58
2022/08/04 14:59:09;;;;;;;;;1.67;1.33;;;;;34.41;29.76;101094.41;4962173;28;45589;-58
2022/08/04 15:01:36;;;;;;;;;0.00;0.00;;;;;34.35;29.43;101098.91;4979523;28;47174;-58
2022/08/04 15:04:03;;;;;;;;;3.67;2.00;;;;;34.30;29.56;101098.72;4979299;28;45377;-58
2022/08/04 15:06:30;;;;;;;;;1.00;1.00;;;;;34.32;29.67;101110.44;4978866;28;45473;-58
2022/08/04 15:09:05;;;;;;;;;1.67;1.67;;;;;34.28;29.92;101111.94;4979626;28;45521;-57
2022/08/04 15:11:31;;;;;;;;;2.00;2.00;;;;;34.16;29.99;101113.72;4971826;28;46695;-58
2022/08/04 15:13:57;;;;;;;;;2.67;1.00;;;;;34.03;29.96;101121.06;4977814;28;45456;-58
2022/08/04 15:16:24;;;;;;;;;1.00;1.00;;;;;33.84;29.89;101127.59;4980086;28;45365;-59
2022/08/04 15:18:50;;;;;;;;;1.00;1.00;;;;;33.78;29.99;101130.13;4979125;28;45351;-58
2022/08/04 15:21:16;;;;;;;;;4.33;3.67;;;;;33.73;30.50;101134.66;4979869;28;45307;-58
2022/08/04 15:23:41;;;;;;;;;1.50;1.50;;;;;33.65;30.63;101133.00;4978467;28;45881;-58
2022/08/04 15:26:12;;;;;;;;;3.33;2.00;;;;;33.64;30.42;101134.06;4975272;28;63800;-58
2022/08/04 15:28:39;;;;;;;;;2.00;2.00;;;;;33.54;30.94;101134.53;4965431;28;45548;-58
2022/08/04 15:31:06;;;;;;;;;4.00;4.00;;;;;33.45;30.58;101149.66;4979244;28;46417;-58
2022/08/04 15:33:31;;;;;;;;;2.33;2.33;;;;;33.33;31.54;101145.91;4984966;28;58326;-58
2022/08/04 15:36:20;;;;;;;;;3.33;2.00;;;;;33.19;31.21;101148.69;4961311;28;65613;-58
2022/08/04 15:39:04;;;;;;;;;2.67;2.67;;;;;33.03;31.47;101150.03;4959227;28;45413;-58
2022/08/04 15:41:55;;;;;;;;;2.33;2.33;;;;;32.90;31.39;101139.06;4986154;28;46278;-58
2022/08/04 15:44:36;;;;;;;;;2.00;2.00;;;;;32.82;31.64;101157.50;4960277;28;45488;-58
2022/08/04 15:47:13;;;;;;;;;4.00;3.00;;;;;32.78;31.87;101155.41;4978153;28;45363;-58
2022/08/04 15:49:39;;;;;;;;;5.00;4.00;;;;;32.70;32.22;101159.22;4971265;28;45471;-57
2022/08/04 15:52:09;;;;;;;;;1.67;1.67;;;;;32.55;32.81;101153.94;4976291;28;45382;-58
2022/08/04 15:54:35;;;;;;;;;3.00;3.00;;;;;32.35;32.78;101162.22;4980409;28;45511;-58
2022/08/04 15:57:01;;;;;;;;;2.67;2.33;;;;;32.12;33.97;101171.75;4975446;28;45476;-58
2022/08/04 16:00:03;;;;;;;;;3.67;3.00;;;;;31.96;33.17;101188.66;4976705;28;45595;-58
2022/08/04 16:02:31;;;;;;;;;4.33;3.00;;;;;31.82;33.97;101196.88;4974550;28;46329;-58
2022/08/04 16:05:19;;;;;;;;;2.00;2.00;;;;;31.72;33.93;101206.56;4977414;28;45519;-58
2022/08/04 16:07:59;;;;;;;;;2.00;2.00;;;;;31.56;33.89;101207.75;4966598;28;45293;-58
2022/08/04 16:10:34;;;;;;;;;1.75;1.75;;;;;31.46;35.17;101197.16;4978664;28;45357;-58
2022/08/04 16:13:07;;;;;;;;;3.00;3.00;;;;;31.39;34.54;101201.78;4978703;28;47059;-58
2022/08/04 16:15:35;;;;;;;;;2.67;2.67;;;;;31.34;35.48;101210.63;4975635;28;45381;-58
2022/08/04 16:18:02;;;;;;;;;4.33;4.33;;;;;31.29;35.18;101204.91;4987905;28;45405;-58
2022/08/04 16:20:27;;;;;;;;;7.00;4.00;;;;;31.24;35.92;101199.16;4978753;28;45798;-58
2022/08/04 16:22:57;;;;;;;;;4.00;4.00;;;;;31.18;35.83;101189.84;4980748;28;69694;-58
2022/08/04 16:25:58;;;;;;;;;5.00;3.00;;;;;31.09;36.28;101193.81;4982390;28;45352;-58